createdAt,value
2018-05-04T00:01:01.246Z,7.58
2018-05-04T00:03:27.110Z,7.52
2018-05-04T00:05:52.971Z,7.50
2018-05-04T00:08:18.887Z,7.49
2018-05-04T00:10:44.777Z,7.45
2018-05-04T00:13:10.639Z,7.41
2018-05-04T00:15:36.537Z,7.40
2018-05-04T00:18:02.401Z,7.33
2018-05-04T00:20:28.269Z,7.25
2018-05-04T00:22:54.202Z,7.23
2018-05-04T00:25:20.066Z,7.19
2018-05-04T00:27:45.927Z,7.15
2018-05-04T00:30:11.829Z,7.13
2018-05-04T00:32:37.671Z,7.09
2018-05-04T00:35:03.523Z,7.10
2018-05-04T00:37:29.820Z,7.04
2018-05-04T00:39:55.762Z,6.98
2018-05-04T00:42:21.617Z,6.98
2018-05-04T00:44:47.511Z,6.90
2018-05-04T00:47:13.354Z,6.87
2018-05-04T00:49:39.203Z,6.85
2018-05-04T00:52:05.361Z,6.84
2018-05-04T00:54:31.218Z,6.81
2018-05-04T00:56:57.070Z,6.71
2018-05-04T00:59:23.026Z,6.69
2018-05-04T01:01:48.854Z,6.71
2018-05-04T01:04:14.806Z,6.67
2018-05-04T01:06:40.719Z,6.63
2018-05-04T01:09:06.583Z,6.60
2018-05-04T01:11:32.439Z,6.62
2018-05-04T01:13:58.352Z,6.54
2018-05-04T01:16:24.332Z,6.57
2018-05-04T01:18:50.179Z,6.52
2018-05-04T01:21:16.112Z,6.58
2018-05-04T01:23:41.959Z,6.54
2018-05-04T01:26:07.803Z,6.47
2018-05-04T01:28:33.784Z,6.46
2018-05-04T01:30:59.648Z,6.42
2018-05-04T01:33:25.512Z,6.41
2018-05-04T01:35:51.420Z,6.46
2018-05-04T01:38:17.288Z,6.42
2018-05-04T01:40:43.230Z,6.33
2018-05-04T01:43:09.295Z,6.31
2018-05-04T01:45:35.144Z,6.24
2018-05-04T01:48:01.002Z,6.29
2018-05-04T01:50:26.928Z,6.22
2018-05-04T01:52:52.859Z,6.17
2018-05-04T01:55:18.716Z,6.19
2018-05-04T01:57:44.689Z,6.18
2018-05-04T02:00:10.551Z,6.13
2018-05-04T02:02:36.387Z,6.10
2018-05-04T02:05:02.415Z,6.05
2018-05-04T02:07:28.276Z,6.04
2018-05-04T02:09:54.132Z,6.05
2018-05-04T02:12:20.027Z,5.97
2018-05-04T02:14:45.874Z,6.02
2018-05-04T02:17:11.807Z,5.95
2018-05-04T02:19:37.724Z,6.03
2018-05-04T02:22:03.592Z,5.98
2018-05-04T02:24:29.451Z,5.91
2018-05-04T02:26:55.355Z,5.88
2018-05-04T02:29:21.312Z,5.87
2018-05-04T02:31:47.173Z,5.88
2018-05-04T02:34:13.481Z,5.78
2018-05-04T02:36:39.355Z,5.94
2018-05-04T02:39:05.227Z,5.79
2018-05-04T02:41:31.216Z,5.81
2018-05-04T02:43:57.085Z,5.73
2018-05-04T02:46:22.944Z,5.70
2018-05-04T02:48:48.839Z,5.72
2018-05-04T02:51:14.679Z,5.76
2018-05-04T02:53:40.694Z,5.67
2018-05-04T02:56:06.605Z,5.59
2018-05-04T02:58:32.459Z,5.54
2018-05-04T03:00:58.307Z,5.51
2018-05-04T03:03:24.571Z,5.49
2018-05-04T03:05:50.519Z,5.54
2018-05-04T03:08:16.367Z,5.51
2018-05-04T03:10:42.251Z,5.43
2018-05-04T03:13:08.103Z,5.38
2018-05-04T03:15:33.952Z,5.34
2018-05-04T03:17:59.949Z,5.29
2018-05-04T03:20:25.848Z,5.24
2018-05-04T03:22:51.703Z,5.25
2018-05-04T03:25:17.615Z,5.27
2018-05-04T03:27:43.563Z,5.21
2018-05-04T03:30:09.460Z,5.24
2018-05-04T03:32:35.772Z,5.34
2018-05-04T03:35:01.648Z,5.33
2018-05-04T03:37:27.501Z,5.23
2018-05-04T03:39:53.462Z,5.28
2018-05-04T03:42:19.405Z,5.24
2018-05-04T03:44:45.263Z,5.18
2018-05-04T03:47:11.191Z,5.23
2018-05-04T03:49:37.038Z,5.17
2018-05-04T03:52:02.915Z,5.18
2018-05-04T03:54:28.917Z,5.28
2018-05-04T03:57:07.075Z,5.28
2018-05-04T04:02:50.942Z,5.27
2018-05-04T04:05:16.927Z,5.28
2018-05-04T04:07:42.813Z,5.36
2018-05-04T04:10:08.676Z,5.33
2018-05-04T04:12:34.597Z,5.32
2018-05-04T04:15:00.443Z,5.41
2018-05-04T04:17:26.381Z,5.44
2018-05-04T04:19:52.491Z,5.52
2018-05-04T04:22:18.343Z,5.54
2018-05-04T04:24:44.192Z,5.62
2018-05-04T04:27:10.082Z,5.71
2018-05-04T04:29:36.029Z,5.78
2018-05-04T04:32:01.896Z,5.84
2018-05-04T04:34:28.210Z,5.99
2018-05-04T04:36:54.091Z,6.04
2018-05-04T04:39:21.794Z,6.08
2018-05-04T04:41:47.792Z,6.14
2018-05-04T04:44:13.680Z,6.24
2018-05-04T04:46:39.575Z,6.36
2018-05-04T04:49:05.488Z,6.51
2018-05-04T04:51:31.384Z,6.63
2018-05-04T04:53:57.324Z,6.72
2018-05-04T04:56:23.231Z,6.88
2018-05-04T04:58:49.815Z,7.00
2018-05-04T05:01:15.693Z,7.17
2018-05-04T05:03:41.638Z,7.37
2018-05-04T05:06:07.592Z,7.53
2018-05-04T05:08:33.454Z,7.72
2018-05-04T05:10:59.443Z,7.81
2018-05-04T05:13:25.265Z,7.99
2018-05-04T05:15:51.110Z,8.20
2018-05-04T05:18:17.169Z,8.33
2018-05-04T05:20:43.043Z,8.51
2018-05-04T05:23:08.894Z,8.68
2018-05-04T05:25:34.803Z,8.81
2018-05-04T05:28:00.697Z,8.97
2018-05-04T05:30:26.729Z,9.12
2018-05-04T05:32:52.830Z,9.32
2018-05-04T05:35:18.671Z,9.45
2018-05-04T05:37:44.609Z,9.59
2018-05-04T05:40:10.857Z,9.72
2018-05-04T05:42:36.720Z,9.83
2018-05-04T05:45:02.599Z,9.99
2018-05-04T05:47:28.518Z,10.06
2018-05-04T05:49:54.498Z,10.24
2018-05-04T05:52:20.357Z,10.38
2018-05-04T05:54:46.259Z,10.39
2018-05-04T05:57:12.124Z,10.49
2018-05-04T06:02:09.607Z,10.75
2018-05-04T06:04:35.470Z,10.81
2018-05-04T06:07:01.342Z,10.91
2018-05-04T06:09:27.413Z,11.05
2018-05-04T06:11:53.209Z,11.10
2018-05-04T06:14:19.135Z,11.22
2018-05-04T06:16:45.035Z,11.30
2018-05-04T06:19:10.887Z,11.53
2018-05-04T06:21:36.755Z,11.62
2018-05-04T06:24:02.664Z,11.70
2018-05-04T06:26:28.539Z,11.82
2018-05-04T06:28:54.387Z,11.89
2018-05-04T06:31:20.301Z,12.02
2018-05-04T06:33:46.219Z,12.10
2018-05-04T06:36:12.099Z,12.24
2018-05-04T06:38:38.028Z,12.39
2018-05-04T06:41:03.909Z,12.47
2018-05-04T06:43:29.791Z,12.59
2018-05-04T06:45:55.684Z,12.74
2018-05-04T06:48:21.582Z,12.75
2018-05-04T06:50:47.486Z,12.73
2018-05-04T06:53:13.477Z,12.83
2018-05-04T06:55:39.314Z,12.87
2018-05-04T06:58:05.289Z,13.02
2018-05-04T07:00:31.414Z,13.15
2018-05-04T07:02:57.283Z,13.30
2018-05-04T07:05:23.155Z,13.42
2018-05-04T07:07:49.117Z,13.52
2018-05-04T07:10:15.065Z,13.58
2018-05-04T07:12:40.935Z,13.65
2018-05-04T07:15:06.913Z,13.87
2018-05-04T07:17:32.757Z,13.99
2018-05-04T07:19:58.966Z,13.88
2018-05-04T07:22:24.883Z,14.19
2018-05-04T07:24:50.735Z,14.24
2018-05-04T07:27:16.720Z,14.48
2018-05-04T07:29:42.640Z,14.64
2018-05-04T07:32:08.527Z,14.76
2018-05-04T07:34:34.438Z,14.72
2018-05-04T07:37:00.351Z,14.91
2018-05-04T07:39:26.211Z,14.97
2018-05-04T07:41:52.071Z,15.09
2018-05-04T07:44:18.003Z,15.47
2018-05-04T07:46:43.917Z,15.37
2018-05-04T07:49:09.775Z,15.41
2018-05-04T07:51:35.781Z,15.46
2018-05-04T07:54:01.740Z,15.66
2018-05-04T07:56:35.754Z,15.87
2018-05-04T07:59:01.629Z,15.88
2018-05-04T08:01:27.489Z,16.00
2018-05-04T08:03:53.461Z,16.04
2018-05-04T08:06:19.329Z,16.11
2018-05-04T08:08:45.199Z,16.27
2018-05-04T08:11:11.093Z,16.37
2018-05-04T08:13:36.975Z,16.54
2018-05-04T08:16:02.843Z,16.55
2018-05-04T08:18:28.773Z,16.64
2018-05-04T08:21:01.284Z,17.16
2018-05-04T08:23:27.152Z,17.11
2018-05-04T08:25:53.091Z,17.34
2018-05-04T08:28:18.994Z,17.63
2018-05-04T08:30:44.878Z,17.64
2018-05-04T08:33:10.772Z,17.83
2018-05-04T08:35:36.627Z,17.80
2018-05-04T08:38:02.519Z,17.09
2018-05-04T08:40:28.425Z,16.86
2018-05-04T08:42:54.355Z,16.73
2018-05-04T08:45:20.168Z,17.65
2018-05-04T08:47:46.088Z,17.98
2018-05-04T08:50:11.977Z,18.28
2018-05-04T08:52:37.852Z,18.02
2018-05-04T08:55:03.760Z,18.17
2018-05-04T08:57:29.724Z,17.67
2018-05-04T08:59:55.557Z,17.15
2018-05-04T09:02:21.855Z,17.75
2018-05-04T09:04:47.904Z,17.40
2018-05-04T09:07:13.851Z,18.11
2018-05-04T09:09:39.828Z,18.42
2018-05-04T09:12:05.723Z,18.79
2018-05-04T09:14:31.600Z,18.85
2018-05-04T09:16:57.531Z,18.52
2018-05-04T09:19:23.404Z,18.09
2018-05-04T09:21:49.340Z,18.97
2018-05-04T09:24:15.241Z,18.70
2018-05-04T09:26:41.117Z,18.73
2018-05-04T09:29:07.007Z,18.78
2018-05-04T09:31:32.941Z,19.22
2018-05-04T09:33:58.851Z,19.50
2018-05-04T09:36:24.722Z,20.00
2018-05-04T09:38:50.623Z,19.99
2018-05-04T09:41:16.470Z,19.91
2018-05-04T09:43:42.422Z,19.81
2018-05-04T09:46:08.278Z,19.59
2018-05-04T09:48:34.146Z,19.89
2018-05-04T09:51:00.039Z,19.95
2018-05-04T09:53:25.966Z,19.88
2018-05-04T09:55:51.978Z,19.73
2018-05-04T09:58:17.825Z,19.60
2018-05-04T10:00:43.737Z,19.87
2018-05-04T10:03:09.607Z,20.41
2018-05-04T10:05:35.518Z,20.30
2018-05-04T10:08:01.520Z,20.44
2018-05-04T10:10:27.407Z,21.08
2018-05-04T10:12:53.288Z,21.31
2018-05-04T10:15:20.171Z,21.84
2018-05-04T10:17:46.122Z,21.59
2018-05-04T10:20:11.970Z,21.85
2018-05-04T10:22:37.991Z,22.22
2018-05-04T10:25:04.244Z,22.32
2018-05-04T10:27:30.296Z,22.46
2018-05-04T10:29:58.960Z,21.85
2018-05-04T10:32:25.053Z,22.25
2018-05-04T10:34:50.919Z,22.87
2018-05-04T10:37:16.981Z,22.26
2018-05-04T10:39:43.467Z,22.62
2018-05-04T10:42:09.340Z,22.62
2018-05-04T10:44:35.416Z,22.21
2018-05-04T10:47:01.352Z,22.63
2018-05-04T10:49:27.361Z,23.01
2018-05-04T10:51:53.362Z,22.09
2018-05-04T10:54:19.260Z,22.32
2018-05-04T10:56:45.141Z,21.85
2018-05-04T10:59:11.112Z,21.38
2018-05-04T11:01:36.987Z,22.68
2018-05-04T11:04:02.998Z,23.21
2018-05-04T11:06:28.984Z,23.50
2018-05-04T11:08:55.082Z,23.69
2018-05-04T11:11:21.068Z,23.64
2018-05-04T11:13:46.977Z,23.64
2018-05-04T11:16:12.925Z,23.07
2018-05-04T11:18:38.780Z,22.96
2018-05-04T11:21:04.736Z,22.08
2018-05-04T11:23:30.605Z,22.34
2018-05-04T11:25:56.562Z,23.33
2018-05-04T11:28:22.538Z,23.72
2018-05-04T11:30:48.441Z,22.63
2018-05-04T11:33:14.311Z,22.70
2018-05-04T11:35:40.247Z,23.62
2018-05-04T11:38:06.107Z,23.94
2018-05-04T11:40:32.039Z,24.32
2018-05-04T11:42:57.974Z,24.69
2018-05-04T11:45:23.845Z,25.32
2018-05-04T11:47:49.730Z,25.02
2018-05-04T11:50:15.643Z,24.87
2018-05-04T11:52:41.636Z,25.18
2018-05-04T11:55:07.610Z,23.49
2018-05-04T11:57:33.552Z,24.06
2018-05-04T11:59:59.408Z,21.51
2018-05-04T12:02:25.369Z,20.69
2018-05-04T12:04:51.342Z,20.97
2018-05-04T12:07:17.243Z,21.89
2018-05-04T12:09:43.147Z,22.54
2018-05-04T12:12:09.068Z,21.78
2018-05-04T12:14:34.927Z,22.35
2018-05-04T12:17:00.811Z,21.99
2018-05-04T12:19:26.804Z,21.35
2018-05-04T12:21:52.663Z,21.05
2018-05-04T12:24:18.573Z,21.46
2018-05-04T12:26:44.560Z,20.74
2018-05-04T12:29:10.433Z,19.63
2018-05-04T12:31:36.372Z,19.99
2018-05-04T12:34:02.322Z,19.77
2018-05-04T12:36:28.191Z,19.95
2018-05-04T12:38:54.147Z,20.17
2018-05-04T12:41:20.070Z,20.53
2018-05-04T12:43:45.966Z,20.64
2018-05-04T12:46:11.817Z,20.16
2018-05-04T12:48:37.720Z,19.48
2018-05-04T12:51:03.576Z,19.97
2018-05-04T12:53:29.602Z,20.08
2018-05-04T12:55:55.503Z,19.64
2018-05-04T12:58:28.329Z,19.96
2018-05-04T13:00:54.211Z,20.15
2018-05-04T13:03:20.150Z,20.19
2018-05-04T13:05:46.025Z,19.99
2018-05-04T13:08:11.923Z,19.47
2018-05-04T13:10:37.840Z,18.95
2018-05-04T13:13:03.715Z,19.24
2018-05-04T13:15:29.591Z,19.68
2018-05-04T13:17:55.516Z,19.96
2018-05-04T13:20:21.487Z,20.02
2018-05-04T13:22:47.354Z,20.17
2018-05-04T13:25:13.939Z,19.77
2018-05-04T13:27:39.813Z,19.51
2018-05-04T13:30:05.682Z,19.45
2018-05-04T13:32:31.673Z,19.78
2018-05-04T13:34:57.544Z,20.04
2018-05-04T13:37:23.431Z,20.20
2018-05-04T13:39:49.399Z,20.10
2018-05-04T13:42:15.406Z,19.93
2018-05-04T13:44:41.375Z,20.13
2018-05-04T13:47:07.393Z,20.04
2018-05-04T13:49:33.246Z,20.32
2018-05-04T13:51:59.327Z,20.64
2018-05-04T13:54:25.270Z,20.66
2018-05-04T13:56:51.248Z,21.04
2018-05-04T13:59:17.132Z,20.81
2018-05-04T14:01:43.072Z,20.55
2018-05-04T14:04:08.967Z,20.90
2018-05-04T14:06:34.912Z,20.42
2018-05-04T14:09:00.872Z,20.88
2018-05-04T14:11:26.747Z,21.20
2018-05-04T14:13:52.691Z,20.65
2018-05-04T14:16:18.637Z,20.27
2018-05-04T14:18:44.516Z,20.79
2018-05-04T14:21:10.408Z,20.48
2018-05-04T14:23:36.769Z,20.10
2018-05-04T14:26:02.640Z,20.68
2018-05-04T14:28:28.520Z,20.72
2018-05-04T14:30:54.446Z,19.89
2018-05-04T14:33:20.363Z,20.08
2018-05-04T14:35:46.248Z,20.15
2018-05-04T14:38:12.192Z,20.66
2018-05-04T14:40:38.049Z,20.90
2018-05-04T14:43:03.926Z,20.00
2018-05-04T14:45:29.844Z,20.28
2018-05-04T14:47:55.733Z,20.28
2018-05-04T14:50:21.590Z,20.66
2018-05-04T14:52:47.524Z,21.00
2018-05-04T14:55:13.385Z,20.06
2018-05-04T14:57:39.255Z,20.58
2018-05-04T15:00:05.197Z,21.19
2018-05-04T15:02:31.079Z,21.21
2018-05-04T15:04:56.940Z,21.17
2018-05-04T15:07:22.877Z,21.50
2018-05-04T15:09:48.819Z,20.92
2018-05-04T15:12:14.682Z,20.38
2018-05-04T15:14:40.646Z,20.24
2018-05-04T15:17:06.529Z,20.93
2018-05-04T15:19:32.405Z,20.62
2018-05-04T15:21:58.711Z,21.03
2018-05-04T15:24:24.578Z,20.84
2018-05-04T15:26:50.440Z,21.22
2018-05-04T15:29:17.243Z,21.50
2018-05-04T15:31:43.096Z,20.62
2018-05-04T15:34:09.985Z,20.73
2018-05-04T15:36:35.912Z,20.66
2018-05-04T15:39:01.811Z,19.78
2018-05-04T15:41:27.993Z,20.46
2018-05-04T15:43:53.911Z,20.73
2018-05-04T15:46:19.904Z,20.65
2018-05-04T15:48:51.966Z,19.52
2018-05-04T15:51:24.379Z,19.50
2018-05-04T15:53:50.588Z,19.73
2018-05-04T15:56:16.471Z,19.93
2018-05-04T15:58:42.487Z,20.12
2018-05-04T16:01:08.367Z,20.25
2018-05-04T16:03:34.383Z,19.84
2018-05-04T16:06:00.321Z,20.18
2018-05-04T16:08:26.198Z,20.25
2018-05-04T16:10:52.904Z,19.81
2018-05-04T16:13:18.803Z,19.78
2018-05-04T16:15:44.696Z,19.30
2018-05-04T16:18:10.547Z,19.09
2018-05-04T16:20:36.628Z,18.66
2018-05-04T16:23:02.596Z,18.26
2018-05-04T16:25:28.475Z,18.49
2018-05-04T16:27:54.397Z,18.60
2018-05-04T16:30:20.364Z,18.97
2018-05-04T16:32:46.292Z,18.91
2018-05-04T16:35:12.333Z,19.01
2018-05-04T16:37:38.381Z,18.85
2018-05-04T16:40:04.283Z,18.81
2018-05-04T16:42:30.194Z,18.67
2018-05-04T16:44:56.088Z,18.55
2018-05-04T16:47:22.154Z,18.27
2018-05-04T16:49:48.070Z,17.96
2018-05-04T16:52:14.688Z,17.73
2018-05-04T16:54:40.633Z,17.84
2018-05-04T16:57:06.871Z,17.90
2018-05-04T16:59:32.792Z,17.81
2018-05-04T17:01:58.677Z,17.53
2018-05-04T17:04:24.915Z,17.49
2018-05-04T17:06:50.799Z,17.37
2018-05-04T17:09:16.779Z,17.37
2018-05-04T17:11:42.812Z,17.24
2018-05-04T17:14:08.691Z,17.03
2018-05-04T17:16:34.600Z,17.12
2018-05-04T17:19:00.563Z,16.77
2018-05-04T17:21:26.530Z,16.82
2018-05-04T17:23:52.401Z,16.64
2018-05-04T17:26:18.623Z,16.70
2018-05-04T17:28:44.499Z,16.65
2018-05-04T17:31:10.393Z,16.55
2018-05-04T17:33:36.319Z,16.56
2018-05-04T17:36:02.187Z,16.46
2018-05-04T17:38:28.059Z,16.36
2018-05-04T17:40:53.975Z,16.16
2018-05-04T17:43:19.842Z,15.83
2018-05-04T17:45:45.705Z,15.86
2018-05-04T17:48:11.602Z,15.95
2018-05-04T17:50:37.458Z,15.85
2018-05-04T17:53:03.407Z,15.65
2018-05-04T17:55:29.342Z,15.55
2018-05-04T17:57:55.187Z,15.47
2018-05-04T18:00:21.984Z,15.43
2018-05-04T18:02:47.883Z,15.44
2018-05-04T18:05:13.832Z,15.33
2018-05-04T18:07:39.694Z,15.25
2018-05-04T18:10:05.788Z,15.09
2018-05-04T18:12:31.663Z,14.99
2018-05-04T18:14:57.599Z,14.82
2018-05-04T18:17:23.563Z,14.67
2018-05-04T18:19:49.415Z,14.52
2018-05-04T18:22:15.278Z,14.48
2018-05-04T18:24:41.243Z,14.33
2018-05-04T18:27:07.119Z,14.33
2018-05-04T18:29:32.980Z,14.22
2018-05-04T18:31:58.896Z,14.07
2018-05-04T18:34:24.837Z,13.96
2018-05-04T18:36:50.636Z,13.82
2018-05-04T18:39:16.535Z,13.66
2018-05-04T18:41:42.384Z,13.50
2018-05-04T18:44:08.228Z,13.47
2018-05-04T18:46:34.214Z,13.37
2018-05-04T18:49:00.077Z,13.28
2018-05-04T18:51:25.927Z,13.18
2018-05-04T18:53:51.843Z,13.04
2018-05-04T18:56:17.692Z,12.96
2018-05-04T18:58:43.569Z,12.84
2018-05-04T19:01:09.486Z,12.75
2018-05-04T19:03:35.452Z,12.67
2018-05-04T19:06:01.306Z,12.55
2018-05-04T19:08:27.213Z,12.49
2018-05-04T19:10:53.095Z,12.39
2018-05-04T19:13:18.939Z,12.32
2018-05-04T19:15:44.834Z,12.22
2018-05-04T19:18:10.741Z,12.13
2018-05-04T19:20:36.680Z,12.04
2018-05-04T19:23:02.556Z,11.99
2018-05-04T19:25:28.428Z,12.15
2018-05-04T19:27:54.300Z,12.24
2018-05-04T19:30:20.183Z,12.57
2018-05-04T19:32:46.037Z,12.60
2018-05-04T19:35:11.898Z,12.59
2018-05-04T19:37:37.902Z,12.67
2018-05-04T19:40:03.786Z,12.57
2018-05-04T19:42:29.759Z,12.71
2018-05-04T19:44:55.650Z,12.65
2018-05-04T19:47:21.509Z,12.58
2018-05-04T19:49:47.367Z,12.55
2018-05-04T19:52:13.292Z,12.44
2018-05-04T19:54:39.161Z,12.49
2018-05-04T19:57:05.032Z,12.50
2018-05-04T19:59:30.931Z,12.45
2018-05-04T20:01:56.784Z,12.43
2018-05-04T20:04:22.687Z,12.37
2018-05-04T20:06:48.673Z,12.34
2018-05-04T20:09:14.531Z,12.25
2018-05-04T20:11:40.379Z,12.29
2018-05-04T20:14:06.287Z,12.24
2018-05-04T20:16:32.160Z,12.31
2018-05-04T20:18:58.056Z,12.34
2018-05-04T20:21:23.970Z,12.33
2018-05-04T20:23:49.854Z,12.24
2018-05-04T20:26:15.716Z,12.18
2018-05-04T20:28:41.607Z,12.07
2018-05-04T20:31:07.487Z,12.00
2018-05-04T20:33:33.347Z,12.12
2018-05-04T20:35:59.259Z,12.03
2018-05-04T20:38:25.164Z,12.01
2018-05-04T20:40:51.045Z,11.94
2018-05-04T20:43:16.957Z,11.84
2018-05-04T20:45:42.811Z,11.80
2018-05-04T20:48:08.663Z,11.74
2018-05-04T20:50:34.570Z,11.74
2018-05-04T20:53:00.461Z,11.64
2018-05-04T20:55:26.312Z,11.64
2018-05-04T20:57:52.203Z,11.59
2018-05-04T21:00:18.062Z,11.50
2018-05-04T21:02:43.922Z,11.42
2018-05-04T21:05:09.928Z,11.35
2018-05-04T21:07:36.199Z,11.26
2018-05-04T21:10:02.189Z,11.10
2018-05-04T21:12:28.100Z,11.13
2018-05-04T21:14:53.952Z,11.02
2018-05-04T21:17:19.805Z,10.95
2018-05-04T21:19:45.706Z,10.91
2018-05-04T21:22:11.582Z,11.06
2018-05-04T21:24:37.472Z,10.90
2018-05-04T21:27:03.793Z,10.87
2018-05-04T21:29:29.680Z,10.81
2018-05-04T21:31:55.539Z,10.74
2018-05-04T21:34:21.442Z,10.64
2018-05-04T21:36:47.353Z,10.59
2018-05-04T21:39:13.228Z,10.48
2018-05-04T21:41:39.539Z,10.42
2018-05-04T21:44:05.394Z,10.34
2018-05-04T21:46:31.275Z,10.24
2018-05-04T21:48:57.320Z,10.19
2018-05-04T21:51:23.194Z,10.14
2018-05-04T21:53:49.091Z,10.08
2018-05-04T21:56:15.074Z,10.09
2018-05-04T21:58:40.867Z,10.00
2018-05-04T22:01:06.722Z,9.95
2018-05-04T22:03:32.625Z,9.95
2018-05-04T22:05:58.483Z,9.88
2018-05-04T22:08:24.345Z,9.74
2018-05-04T22:10:50.316Z,9.74
2018-05-04T22:13:16.202Z,9.70
2018-05-04T22:15:42.043Z,9.68
2018-05-04T22:18:07.968Z,9.63
2018-05-04T22:20:33.843Z,9.54
2018-05-04T22:22:59.691Z,9.46
2018-05-04T22:25:25.587Z,9.40
2018-05-04T22:27:51.438Z,9.34
2018-05-04T22:30:17.282Z,9.31
2018-05-04T22:32:43.204Z,9.22
2018-05-04T22:35:09.115Z,9.22
2018-05-04T22:37:34.985Z,9.14
2018-05-04T22:40:00.900Z,9.10
2018-05-04T22:42:27.023Z,9.01
2018-05-04T22:44:53.102Z,8.99
2018-05-04T22:47:19.007Z,8.95
2018-05-04T22:49:44.904Z,8.94
2018-05-04T22:52:10.768Z,8.98
2018-05-04T22:54:36.683Z,8.95
2018-05-04T22:57:02.558Z,8.93
2018-05-04T22:59:28.406Z,8.88
2018-05-04T23:01:54.433Z,8.89
2018-05-04T23:04:20.258Z,9.00
2018-05-04T23:06:46.804Z,8.95
2018-05-04T23:09:12.741Z,8.89
2018-05-04T23:11:38.589Z,8.81
2018-05-04T23:14:04.442Z,8.87
2018-05-04T23:16:30.342Z,8.78
2018-05-04T23:18:56.281Z,8.71
2018-05-04T23:21:22.140Z,8.70
2018-05-04T23:23:48.043Z,8.65
2018-05-04T23:26:13.910Z,8.56
2018-05-04T23:28:39.770Z,8.46
2018-05-04T23:31:05.788Z,8.40
2018-05-04T23:33:31.638Z,8.33
2018-05-04T23:35:57.502Z,8.32
2018-05-04T23:38:23.408Z,8.24
2018-05-04T23:40:49.294Z,8.17
2018-05-04T23:43:15.222Z,8.10
2018-05-04T23:45:41.499Z,8.06
2018-05-04T23:48:07.343Z,8.03
2018-05-04T23:50:33.270Z,7.95
2018-05-04T23:52:59.176Z,7.87
2018-05-04T23:55:25.126Z,7.82
2018-05-04T23:57:50.996Z,7.78
